Time;durP1;ratioP1;P1;durP2;ratioP2;P2;SDS_P1;SDS_P2;PMS_P1;PMS_P2;Temp;Humidity;BMP_temperature;BMP_pressure;BME280_temperature;BME280_humidity;BME280_pressure;Samples;Min_cycle;Max_cycle;Signal;HPM_P1;HPM_P2
2022/11/26 00:02:21;;;;;;;;;;;;;;;12.08;44.12;99826.91;4500151;31;34456;-86
2022/11/26 00:04:49;;;;;;;;;;;;;;;11.95;44.22;99829.28;4498433;31;34287;-86
2022/11/26 00:07:17;;;;;;;;;;;;;;;12.06;43.93;99828.63;4497044;31;33667;-89
2022/11/26 00:09:44;;;;;;;;;;;;;;;11.81;44.79;99832.47;4497476;31;35166;-88
2022/11/26 00:12:19;;;;;;;;;;;;;;;12.29;43.70;99846.34;4498266;31;35208;-86
2022/11/26 00:14:46;;;;;;;;;;;;;;;12.26;43.92;99841.09;4497880;31;33607;-88
2022/11/26 00:17:14;;;;;;;;;;;;;;;12.53;43.70;99846.72;4500645;31;34159;-87
2022/11/26 00:19:41;;;;;;;;;;;;;;;12.53;43.91;99848.44;4513309;31;35149;-86
2022/11/26 00:22:23;;;;;;;;;;;;;;;12.50;43.66;99851.91;4516185;31;33970;-87
2022/11/26 00:24:51;;;;;;;;;;;;;;;12.66;43.43;99847.81;4499010;31;33637;-87
2022/11/26 00:27:18;;;;;;;;;;;;;;;12.70;43.42;99843.53;4498808;31;33197;-88
2022/11/26 00:29:45;;;;;;;;;;;;;;;12.77;43.38;99842.78;4499098;31;33959;-88
2022/11/26 00:32:13;;;;;;;;;;;;;;;12.47;43.40;99851.84;4500207;31;34515;-88
2022/11/26 00:34:41;;;;;;;;;;;;;;;12.39;43.65;99840.44;4498800;31;35024;-87
2022/11/26 00:37:10;;;;;;;;;;;;;;;12.55;43.58;99847.63;4500209;31;33325;-86
2022/11/26 00:39:38;;;;;;;;;;;;;;;12.71;43.41;99842.66;4511177;31;35133;-87
2022/11/26 00:42:05;;;;;;;;;;;;;;;12.23;44.31;99844.50;4515127;31;35334;-88
2022/11/26 00:44:32;;;;;;;;;;;;;;;12.40;43.73;99844.78;4515746;31;34915;-87
2022/11/26 00:46:59;;;;;;;;;;;;;;;12.60;43.68;99845.97;4515667;31;32756;-86
2022/11/26 00:49:27;;;;;;;;;;;;;;;12.56;43.89;99851.09;4515385;31;35290;-86
2022/11/26 00:51:54;;;;;;;;;;;;;;;12.84;43.32;99852.38;4515344;31;35447;-87
2022/11/26 00:54:22;;;;;;;;;;;;;;;12.79;43.43;99854.06;4516250;31;33854;-87
2022/11/26 00:56:49;;;;;;;;;;;;;;;13.04;43.08;99855.28;4487219;31;867759;-87
2022/11/26 00:59:18;;;;;;;;;;;;;;;13.04;43.00;99853.56;4506188;31;35084;-87
2022/11/26 01:01:45;;;;;;;;;;;;;;;13.04;43.11;99856.16;4498625;31;34288;-87
2022/11/26 01:04:12;;;;;;;;;;;;;;;13.08;42.96;99860.56;4500003;31;34208;-87
2022/11/26 01:06:40;;;;;;;;;;;;;;;13.08;42.97;99860.56;4499835;31;33531;-86
2022/11/26 01:09:11;;;;;;;;;;;;;;;12.98;43.17;99863.00;4500211;31;33850;-88
2022/11/26 01:11:38;;;;;;;;;;;;;;;13.00;43.15;99863.91;4498542;31;34087;-85
2022/11/26 01:14:08;;;;;;;;;;;;;;;12.83;43.46;99863.66;4499824;31;34982;-87
2022/11/26 01:16:38;;;;;;;;;;;;;;;12.97;43.23;99862.13;4498267;31;33386;-87
2022/11/26 01:19:05;;;;;;;;;;;;;;;12.97;43.26;99859.53;4499923;31;33894;-87
2022/11/26 01:21:32;;;;;;;;;;;;;;;13.13;43.07;99856.28;4498534;31;34120;-86
2022/11/26 01:23:59;;;;;;;;;;;;;;;13.21;42.85;99863.31;4502191;31;34747;-87
2022/11/26 01:26:27;;;;;;;;;;;;;;;13.08;43.02;99863.16;4514231;31;34319;-86
2022/11/26 01:28:54;;;;;;;;;;;;;;;13.06;43.14;99869.19;4516033;31;34211;-86
2022/11/26 01:31:22;;;;;;;;;;;;;;;13.18;42.85;99863.28;4515373;31;33963;-88
2022/11/26 01:33:50;;;;;;;;;;;;;;;12.91;43.35;99862.91;4515376;31;35247;-85
2022/11/26 01:36:36;;;;;;;;;;;;;;;12.93;43.52;99862.06;4514909;31;33522;-88
2022/11/26 01:39:05;;;;;;;;;;;;;;;12.55;43.98;99865.84;4515662;31;34495;-88
2022/11/26 01:41:42;;;;;;;;;;;;;;;12.71;43.61;99861.75;4514404;31;33945;-87
2022/11/26 01:44:15;;;;;;;;;;;;;;;12.77;43.48;99858.38;4511618;31;35087;-87
2022/11/26 01:46:42;;;;;;;;;;;;;;;12.47;43.90;99859.66;4498459;31;32895;-87
2022/11/26 01:49:13;;;;;;;;;;;;;;;12.73;43.42;99867.88;4499795;31;34290;-88
2022/11/26 01:51:41;;;;;;;;;;;;;;;12.85;43.18;99860.22;4497822;31;35153;-87
2022/11/26 01:54:08;;;;;;;;;;;;;;;12.96;43.05;99860.41;4500206;31;34214;-87
2022/11/26 01:56:40;;;;;;;;;;;;;;;12.62;43.60;99862.50;4499532;31;33556;-88
2022/11/26 01:59:07;;;;;;;;;;;;;;;12.88;43.20;99849.88;4498500;31;33864;-87
2022/11/26 02:01:34;;;;;;;;;;;;;;;12.94;43.10;99854.28;4499768;31;34318;-87
2022/11/26 02:04:10;;;;;;;;;;;;;;;12.82;43.45;99856.72;4500352;31;33879;-87
2022/11/26 02:06:37;;;;;;;;;;;;;;;12.33;44.11;99864.59;4515094;31;33398;-86
2022/11/26 02:09:05;;;;;;;;;;;;;;;12.48;43.67;99852.72;4515421;31;34992;-87
2022/11/26 02:11:32;;;;;;;;;;;;;;;12.67;43.14;99859.94;4514278;31;34375;-86
2022/11/26 02:14:31;;;;;;;;;;;;;;;12.78;43.05;99863.59;4514132;31;34275;-88
2022/11/26 02:17:18;;;;;;;;;;;;;;;12.73;42.99;99853.94;4506899;31;33108;-87
2022/11/26 02:20:04;;;;;;;;;;;;;;;12.20;44.13;99869.56;4510749;31;33672;-87
2022/11/26 02:22:32;;;;;;;;;;;;;;;12.62;43.30;99865.09;4515403;31;34509;-86
2022/11/26 02:25:18;;;;;;;;;;;;;;;12.77;43.01;99866.19;4514997;31;34374;-87
2022/11/26 02:27:51;;;;;;;;;;;;;;;12.75;43.08;99870.47;4513810;31;33026;-87
2022/11/26 02:30:18;;;;;;;;;;;;;;;12.68;43.15;99866.03;4512623;31;35098;-87
2022/11/26 02:32:53;;;;;;;;;;;;;;;12.51;43.58;99869.25;4514494;31;34035;-87
2022/11/26 02:35:30;;;;;;;;;;;;;;;12.63;43.50;99871.16;4513959;31;34226;-87
2022/11/26 02:38:03;;;;;;;;;;;;;;;12.69;43.42;99868.66;4512850;31;33860;-86
2022/11/26 02:40:30;;;;;;;;;;;;;;;12.64;43.43;99868.56;4498710;31;34411;-87
2022/11/26 02:42:58;;;;;;;;;;;;;;;12.76;43.35;99877.41;4500121;31;34107;-86
2022/11/26 02:45:26;;;;;;;;;;;;;;;12.64;43.48;99878.97;4499363;31;33987;-88
2022/11/26 02:47:55;;;;;;;;;;;;;;;12.85;43.08;99878.44;4497884;31;33048;-87
2022/11/26 02:50:26;;;;;;;;;;;;;;;12.69;43.35;99875.56;4499908;31;34854;-87
2022/11/26 02:52:53;;;;;;;;;;;;;;;12.64;43.42;99881.59;4513961;31;33833;-86
2022/11/26 02:55:22;;;;;;;;;;;;;;;12.88;42.58;99888.03;4512068;31;34189;-87
2022/11/26 02:57:49;;;;;;;;;;;;;;;12.51;43.29;99890.06;4512275;31;33501;-86
2022/11/26 03:00:18;;;;;;;;;;;;;;;12.28;43.64;99899.19;4513932;31;34226;-87
2022/11/26 03:02:45;;;;;;;;;;;;;;;11.74;44.60;99899.84;4509974;31;34004;-87
2022/11/26 03:05:12;;;;;;;;;;;;;;;11.27;46.15;99907.56;4498890;31;34364;-87
2022/11/26 03:07:39;;;;;;;;;;;;;;;11.38;46.04;99906.06;4497527;31;34768;-87
2022/11/26 03:10:07;;;;;;;;;;;;;;;11.73;45.11;99905.91;4497766;31;34123;-87
2022/11/26 03:12:34;;;;;;;;;;;;;;;11.89;44.88;99908.00;4497399;31;35102;-87
2022/11/26 03:15:02;;;;;;;;;;;;;;;11.85;44.95;99914.84;4499060;31;34473;-86
2022/11/26 03:17:29;;;;;;;;;;;;;;;12.12;44.45;99906.72;4497797;31;33211;-86
2022/11/26 03:19:56;;;;;;;;;;;;;;;12.13;44.47;99911.06;4497706;31;35208;-86
2022/11/26 03:22:23;;;;;;;;;;;;;;;12.26;44.16;99912.16;4501621;31;34974;-87
2022/11/26 03:24:51;;;;;;;;;;;;;;;12.08;44.67;99904.88;4514949;31;33939;-87
2022/11/26 03:27:18;;;;;;;;;;;;;;;12.35;44.23;99914.03;4506247;31;33076;-87
2022/11/26 03:29:45;;;;;;;;;;;;;;;12.33;44.37;99915.75;4498988;31;34358;-87
2022/11/26 03:32:12;;;;;;;;;;;;;;;12.21;44.73;99916.41;4499051;31;35304;-87
2022/11/26 03:34:40;;;;;;;;;;;;;;;12.14;44.76;99920.59;4499128;31;34679;-86
2022/11/26 03:37:08;;;;;;;;;;;;;;;12.01;45.35;99926.44;4499097;31;33472;-87
2022/11/26 03:39:36;;;;;;;;;;;;;;;12.11;45.05;99938.72;4498925;31;34906;-87
2022/11/26 03:42:03;;;;;;;;;;;;;;;12.40;44.61;99928.00;4498651;31;34280;-87
2022/11/26 03:44:31;;;;;;;;;;;;;;;12.57;44.32;99931.75;4499146;31;34368;-87
2022/11/26 03:46:58;;;;;;;;;;;;;;;12.59;44.43;99926.59;4498910;31;34289;-87
2022/11/26 03:49:25;;;;;;;;;;;;;;;12.56;44.56;99930.00;4497896;31;34327;-88
2022/11/26 03:51:52;;;;;;;;;;;;;;;12.48;44.59;99929.00;4498373;31;33903;-87
2022/11/26 03:54:19;;;;;;;;;;;;;;;12.53;44.28;99940.34;4498691;31;34242;-86
2022/11/26 03:56:47;;;;;;;;;;;;;;;12.46;44.38;99933.28;4498609;31;33330;-87
2022/11/26 03:59:14;;;;;;;;;;;;;;;12.51;44.39;99942.06;4498494;31;35143;-87
2022/11/26 04:01:41;;;;;;;;;;;;;;;12.43;44.64;99938.47;4498422;31;34216;-87
2022/11/26 04:04:09;;;;;;;;;;;;;;;12.49;44.43;99933.34;4504560;31;35000;-88
2022/11/26 04:06:36;;;;;;;;;;;;;;;12.73;44.05;99929.41;4513725;31;33598;-88
2022/11/26 04:09:03;;;;;;;;;;;;;;;11.93;45.68;99946.16;4514050;31;33974;-88
2022/11/26 04:11:30;;;;;;;;;;;;;;;11.30;47.18;99947.44;4514233;31;35082;-87
2022/11/26 04:13:57;;;;;;;;;;;;;;;11.53;47.33;99947.94;4513997;31;35081;-87
2022/11/26 04:16:24;;;;;;;;;;;;;;;11.86;46.23;99944.31;4514296;31;34108;-87
2022/11/26 04:18:52;;;;;;;;;;;;;;;11.33;47.99;99952.69;4506228;31;34127;-88
2022/11/26 04:21:19;;;;;;;;;;;;;;;11.51;47.23;99951.34;4498259;31;35245;-85
2022/11/26 04:23:47;;;;;;;;;;;;;;;11.61;47.14;99953.28;4501492;31;34988;-87
2022/11/26 04:26:14;;;;;;;;;;;;;;;11.91;46.52;99951.34;4513628;31;32656;-87
2022/11/26 04:28:42;;;;;;;;;;;;;;;11.84;46.80;99951.19;4514118;31;34319;-87
2022/11/26 04:31:09;;;;;;;;;;;;;;;12.01;46.48;99954.13;4513634;31;34154;-87
2022/11/26 04:33:37;;;;;;;;;;;;;;;11.84;46.50;99951.19;4513620;31;34337;-87
2022/11/26 04:36:04;;;;;;;;;;;;;;;11.37;48.01;99957.13;4514077;31;32932;-88
2022/11/26 04:38:31;;;;;;;;;;;;;;;11.95;46.66;99964.41;4513760;31;33745;-87
2022/11/26 04:40:58;;;;;;;;;;;;;;;11.91;46.66;99971.25;4514030;31;35190;-86
2022/11/26 04:43:25;;;;;;;;;;;;;;;12.02;46.61;99971.50;4513785;31;34160;-88
2022/11/26 04:45:53;;;;;;;;;;;;;;;12.27;46.20;99978.87;4513254;31;33587;-88
2022/11/26 04:48:20;;;;;;;;;;;;;;;12.18;46.30;99984.78;4513272;31;34426;-88
2022/11/26 04:50:48;;;;;;;;;;;;;;;11.40;48.33;99982.25;4500664;31;34143;-86
2022/11/26 04:53:15;;;;;;;;;;;;;;;12.03;46.83;99988.81;4496455;31;34094;-86
2022/11/26 04:55:42;;;;;;;;;;;;;;;10.31;50.95;100000.34;4497596;31;33456;-86
2022/11/26 04:58:10;;;;;;;;;;;;;;;11.17;49.22;99982.62;4497514;31;35100;-87
2022/11/26 05:00:37;;;;;;;;;;;;;;;11.34;48.43;99983.00;4497695;31;35372;-88
2022/11/26 05:03:06;;;;;;;;;;;;;;;10.57;50.49;99994.94;4508903;31;34355;-87
2022/11/26 05:05:33;;;;;;;;;;;;;;;10.62;50.53;99999.41;4514672;31;33128;-86
2022/11/26 05:08:00;;;;;;;;;;;;;;;11.36;48.60;100001.19;4515353;31;34771;-87
2022/11/26 05:10:28;;;;;;;;;;;;;;;11.60;47.98;100004.38;4515241;31;34494;-88
2022/11/26 05:12:55;;;;;;;;;;;;;;;11.76;47.66;100005.56;4515911;31;34261;-88
2022/11/26 05:15:22;;;;;;;;;;;;;;;12.14;46.83;100015.91;4514803;31;33393;-87
2022/11/26 05:17:49;;;;;;;;;;;;;;;12.39;46.34;100014.69;4515645;31;35160;-87
2022/11/26 05:20:17;;;;;;;;;;;;;;;12.47;46.16;100009.63;4515514;31;34568;-88
2022/11/26 05:22:44;;;;;;;;;;;;;;;12.56;45.97;100005.44;4515570;31;34348;-86
2022/11/26 05:25:11;;;;;;;;;;;;;;;12.56;45.86;100001.97;4516069;31;34271;-87
2022/11/26 05:27:38;;;;;;;;;;;;;;;12.68;45.69;100007.38;4515892;31;33922;-87
2022/11/26 05:30:06;;;;;;;;;;;;;;;12.95;44.76;100006.09;4516015;31;34224;-88
2022/11/26 05:32:33;;;;;;;;;;;;;;;12.75;44.76;100008.38;4505111;31;33816;-87
2022/11/26 05:35:00;;;;;;;;;;;;;;;12.08;45.86;100024.44;4499828;31;33368;-86
2022/11/26 05:37:27;;;;;;;;;;;;;;;11.63;46.82;100025.22;4499872;31;34100;-87
2022/11/26 05:39:55;;;;;;;;;;;;;;;10.83;48.94;100029.31;4499588;31;34873;-87
2022/11/26 05:42:22;;;;;;;;;;;;;;;11.44;47.61;100028.25;4499768;31;34517;-88
2022/11/26 05:44:49;;;;;;;;;;;;;;;11.93;46.46;100034.53;4499813;31;33995;-88
2022/11/26 05:47:16;;;;;;;;;;;;;;;12.25;45.92;100036.94;4499054;31;33656;-87
2022/11/26 05:49:43;;;;;;;;;;;;;;;11.26;47.59;100039.06;4499595;31;34889;-88
2022/11/26 05:52:11;;;;;;;;;;;;;;;12.13;46.27;100041.03;4499843;31;34818;-88
2022/11/26 05:54:38;;;;;;;;;;;;;;;12.06;46.28;100039.16;4499546;31;32914;-88
2022/11/26 05:57:06;;;;;;;;;;;;;;;12.40;45.74;100045.91;4499763;31;33925;-88
2022/11/26 05:59:33;;;;;;;;;;;;;;;12.66;45.28;100046.38;4499820;31;35442;-86
2022/11/26 06:02:00;;;;;;;;;;;;;;;12.61;45.29;100047.13;4514153;31;33625;-89
2022/11/26 06:04:28;;;;;;;;;;;;;;;12.64;45.23;100052.41;4514846;31;33343;-88
2022/11/26 06:06:56;;;;;;;;;;;;;;;12.84;44.72;100048.47;4515250;31;35111;-86
2022/11/26 06:09:23;;;;;;;;;;;;;;;12.77;44.87;100053.53;4514997;31;34088;-87
2022/11/26 06:11:51;;;;;;;;;;;;;;;12.64;45.17;100055.00;4514484;31;34900;-87
2022/11/26 06:14:18;;;;;;;;;;;;;;;12.62;45.10;100065.41;4499610;31;32824;-86
2022/11/26 06:16:45;;;;;;;;;;;;;;;12.79;44.82;100060.50;4499414;31;35024;-86
2022/11/26 06:19:12;;;;;;;;;;;;;;;12.90;44.67;100058.09;4499512;31;34048;-87
2022/11/26 06:21:39;;;;;;;;;;;;;;;12.99;44.45;100066.03;4499238;31;33707;-89
2022/11/26 06:24:07;;;;;;;;;;;;;;;13.03;44.37;100062.66;4510992;31;34210;-88
2022/11/26 06:26:34;;;;;;;;;;;;;;;13.17;43.99;100068.09;4515389;31;34132;-87
2022/11/26 06:29:01;;;;;;;;;;;;;;;12.98;44.34;100069.50;4515222;31;34124;-88
2022/11/26 06:31:29;;;;;;;;;;;;;;;12.94;44.49;100064.22;4514587;31;33637;-88
2022/11/26 06:33:56;;;;;;;;;;;;;;;13.04;44.51;100067.00;4514790;31;33485;-87
2022/11/26 06:36:23;;;;;;;;;;;;;;;12.95;44.76;100069.44;4515206;31;34220;-86
2022/11/26 06:38:50;;;;;;;;;;;;;;;12.99;44.49;100076.44;4511522;31;34428;-88
2022/11/26 06:41:18;;;;;;;;;;;;;;;12.55;44.84;100068.72;4510781;31;34948;-87
2022/11/26 06:43:45;;;;;;;;;;;;;;;12.39;44.94;100071.88;4515143;31;34121;-87
2022/11/26 06:46:12;;;;;;;;;;;;;;;12.24;45.30;100079.38;4514838;31;34911;-87
2022/11/26 06:48:39;;;;;;;;;;;;;;;12.68;44.56;100084.56;4515090;31;35155;-88
2022/11/26 06:51:08;;;;;;;;;;;;;;;12.66;44.65;100082.81;4515214;31;35030;-88
2022/11/26 06:53:35;;;;;;;;;;;;;;;12.64;44.77;100088.81;4515188;31;33473;-87
2022/11/26 06:56:03;;;;;;;;;;;;;;;12.84;44.51;100086.59;4515275;31;34105;-87
2022/11/26 06:58:30;;;;;;;;;;;;;;;12.74;44.60;100095.09;4514475;31;34657;-86
2022/11/26 07:00:57;;;;;;;;;;;;;;;12.43;44.87;100104.03;4500347;31;34460;-85
2022/11/26 07:03:25;;;;;;;;;;;;;;;12.82;44.57;100101.31;4498728;31;34303;-87
2022/11/26 07:05:59;;;;;;;;;;;;;;;12.93;44.42;100107.59;4499281;31;35002;-87
2022/11/26 07:08:26;;;;;;;;;;;;;;;12.87;44.69;100102.25;4498820;31;34488;-86
2022/11/26 07:10:53;;;;;;;;;;;;;;;12.62;45.02;100113.94;4499074;31;33895;-86
2022/11/26 07:13:20;;;;;;;;;;;;;;;12.41;45.42;100111.78;4499096;31;33259;-87
2022/11/26 07:15:48;;;;;;;;;;;;;;;12.79;44.96;100103.84;4499086;31;35135;-87
2022/11/26 07:18:15;;;;;;;;;;;;;;;12.74;45.00;100108.97;4513877;31;34522;-86
2022/11/26 07:20:42;;;;;;;;;;;;;;;11.91;46.72;100106.38;4502095;31;34398;-87
2022/11/26 07:23:09;;;;;;;;;;;;;;;11.29;48.19;100113.50;4503871;31;34152;-88
2022/11/26 07:25:36;;;;;;;;;;;;;;;11.92;47.21;100116.81;4507860;31;34110;-85
2022/11/26 07:28:03;;;;;;;;;;;;;;;12.51;46.13;100121.53;4514424;31;34135;-87
2022/11/26 07:30:31;;;;;;;;;;;;;;;11.99;46.89;100120.41;4510864;31;35061;-89
2022/11/26 07:32:58;;;;;;;;;;;;;;;12.64;46.05;100126.13;4503789;31;34292;-88
2022/11/26 07:35:25;;;;;;;;;;;;;;;12.24;47.06;100126.19;4498948;31;35043;-87
2022/11/26 07:37:53;;;;;;;;;;;;;;;11.38;48.67;100121.56;4507380;31;35280;-86
2022/11/26 07:40:20;;;;;;;;;;;;;;;12.23;47.11;100125.28;4509641;31;35039;-85
2022/11/26 07:42:48;;;;;;;;;;;;;;;12.09;47.21;100114.59;4511252;31;33068;-86
2022/11/26 07:45:23;;;;;;;;;;;;;;;12.30;46.85;100132.34;4499002;31;34120;-87
2022/11/26 07:47:50;;;;;;;;;;;;;;;13.08;45.33;100128.69;4503408;31;36016;-85
2022/11/26 07:50:17;;;;;;;;;;;;;;;12.68;46.14;100136.59;4499324;31;34940;-86
2022/11/26 07:52:44;;;;;;;;;;;;;;;12.78;44.96;100128.13;4498455;31;33208;-90
2022/11/26 07:55:12;;;;;;;;;;;;;;;12.02;46.71;100133.50;4504486;31;34357;-89
2022/11/26 07:57:39;;;;;;;;;;;;;;;12.06;47.00;100130.12;4505068;31;34288;-88
2022/11/26 08:00:06;;;;;;;;;;;;;;;12.07;47.21;100129.25;4498033;31;33881;-85
2022/11/26 08:02:37;;;;;;;;;;;;;;;10.44;51.34;100136.34;4504758;31;33345;-86
2022/11/26 08:05:05;;;;;;;;;;;;;;;10.41;51.79;100133.62;4504127;31;34857;-86
2022/11/26 08:07:33;;;;;;;;;;;;;;;11.51;48.86;100133.09;4508006;31;33757;-86
2022/11/26 08:10:01;;;;;;;;;;;;;;;11.08;50.19;100140.69;4514378;31;33894;-85
2022/11/26 08:12:28;;;;;;;;;;;;;;;11.53;49.23;100152.22;4508239;31;33698;-86
2022/11/26 08:14:55;;;;;;;;;;;;;;;11.15;50.28;100155.59;4511054;31;34134;-85
2022/11/26 08:17:22;;;;;;;;;;;;;;;11.81;48.99;100151.16;4504466;31;34268;-86
2022/11/26 08:19:50;;;;;;;;;;;;;;;11.53;49.27;100154.81;4499689;31;35006;-86
2022/11/26 08:22:17;;;;;;;;;;;;;;;11.85;48.62;100158.19;4505980;31;33635;-85
2022/11/26 08:24:44;;;;;;;;;;;;;;;10.71;51.53;100169.94;4506525;31;34286;-86
2022/11/26 08:27:11;;;;;;;;;;;;;;;9.62;53.89;100195.09;4504346;31;34413;-87
2022/11/26 08:29:38;;;;;;;;;;;;;;;10.14;53.28;100185.50;4506198;31;34238;-86
2022/11/26 08:32:06;;;;;;;;;;;;;;;10.71;51.45;100173.41;4504124;31;33633;-87
2022/11/26 08:34:34;;;;;;;;;;;;;;;10.88;51.60;100175.63;4498664;31;34051;-85
2022/11/26 08:37:01;;;;;;;;;;;;;;;10.98;51.26;100180.19;4507118;31;34252;-90
2022/11/26 08:39:28;;;;;;;;;;;;;;;10.98;50.76;100182.78;4505615;31;34055;-85
2022/11/26 08:41:55;;;;;;;;;;;;;;;11.01;51.03;100182.87;4507149;31;33932;-85
2022/11/26 08:44:23;;;;;;;;;;;;;;;10.78;51.92;100181.38;4506268;31;33868;-86
2022/11/26 08:46:50;;;;;;;;;;;;;;;11.07;51.10;100188.25;4504180;31;34000;-86
2022/11/26 08:49:17;;;;;;;;;;;;;;;9.80;54.48;100201.69;4506466;31;33820;-88
2022/11/26 08:51:44;;;;;;;;;;;;;;;10.77;51.49;100187.41;4508595;31;32768;-90
2022/11/26 08:54:11;;;;;;;;;;;;;;;10.75;51.38;100191.66;4502217;31;34035;-88
2022/11/26 08:56:39;;;;;;;;;;;;;;;11.00;51.07;100186.31;4502571;31;34091;-88
2022/11/26 08:59:06;;;;;;;;;;;;;;;11.12;50.83;100189.25;4505536;31;35024;-87
2022/11/26 09:01:33;;;;;;;;;;;;;;;11.28;50.76;100187.06;4501725;31;34276;-86
2022/11/26 09:04:01;;;;;;;;;;;;;;;11.12;51.46;100191.84;4506459;31;33732;-87
2022/11/26 09:06:29;;;;;;;;;;;;;;;11.82;49.83;100181.47;4500961;31;34369;-85
2022/11/26 09:09:11;;;;;;;;;;;;;;;12.33;48.77;100186.16;4508990;31;35097;-87
2022/11/26 09:11:49;;;;;;;;;;;;;;;11.75;50.12;100184.78;4514521;31;33102;-88
2022/11/26 09:14:18;;;;;;;;;;;;;;;11.90;49.30;100191.25;4515110;31;34566;-86
2022/11/26 09:16:45;;;;;;;;;;;;;;;12.24;49.00;100185.97;4515305;31;35078;-84
2022/11/26 09:19:12;;;;;;;;;;;;;;;11.84;49.88;100185.03;4515893;31;33931;-85
2022/11/26 09:21:39;;;;;;;;;;;;;;;11.51;51.04;100193.72;4515730;31;33521;-87
2022/11/26 09:24:07;;;;;;;;;;;;;;;12.30;49.12;100194.75;4514806;31;34847;-87
2022/11/26 09:26:34;;;;;;;;;;;;;;;12.12;49.27;100197.84;4515584;31;35039;-86
2022/11/26 09:29:02;;;;;;;;;;;;;;;11.43;51.32;100203.03;4515593;31;34620;-87
2022/11/26 09:31:29;;;;;;;;;;;;;;;10.59;53.73;100199.00;4515456;31;33211;-86
2022/11/26 09:33:57;;;;;;;;;;;;;;;10.48;54.80;100208.16;4515715;31;34234;-86
2022/11/26 09:36:25;;;;;;;;;;;;;;;11.40;51.49;100202.94;4515682;31;33956;-87
2022/11/26 09:38:55;;;;;;;;;;;;;;;10.45;54.65;100210.66;4506890;31;34167;-87
2022/11/26 09:41:27;;;;;;;;;;;;;;;10.11;55.73;100208.72;4498416;31;33436;-88
2022/11/26 09:44:14;;;;;;;;;;;;;;;9.66;56.43;100220.28;4501553;31;33756;-87
2022/11/26 09:46:55;;;;;;;;;;;;;;;10.61;54.53;100202.53;4514932;31;34380;-88
2022/11/26 09:49:41;;;;;;;;;;;;;;;11.17;52.45;100212.72;4514219;31;33746;-86
2022/11/26 09:52:08;;;;;;;;;;;;;;;10.16;55.25;100214.94;4514393;31;33058;-87
2022/11/26 09:54:35;;;;;;;;;;;;;;;10.28;55.42;100217.06;4515572;31;33643;-86
2022/11/26 09:57:18;;;;;;;;;;;;;;;10.42;55.52;100215.78;4514082;31;35116;-86
2022/11/26 09:59:45;;;;;;;;;;;;;;;10.97;54.16;100214.78;4503403;31;34112;-87
2022/11/26 10:02:13;;;;;;;;;;;;;;;10.78;54.63;100215.09;4498423;31;33131;-85
2022/11/26 10:04:40;;;;;;;;;;;;;;;11.79;51.19;100203.09;4499348;31;34310;-85
2022/11/26 10:07:07;;;;;;;;;;;;;;;11.61;51.96;100208.69;4499233;31;34330;-85
2022/11/26 10:09:35;;;;;;;;;;;;;;;12.05;51.24;100208.94;4499298;31;34118;-85
2022/11/26 10:12:20;;;;;;;;;;;;;;;12.62;50.10;100211.06;4499034;31;33728;-85
2022/11/26 10:15:04;;;;;;;;;;;;;;;11.87;50.84;100213.69;4499242;31;33318;-85
2022/11/26 10:17:37;;;;;;;;;;;;;;;11.95;51.09;100212.16;4499233;31;34008;-86
2022/11/26 10:20:23;;;;;;;;;;;;;;;11.88;51.67;100207.66;4499099;31;34027;-86
2022/11/26 10:23:16;;;;;;;;;;;;;;;12.00;51.46;100213.13;4510129;31;33110;-85
2022/11/26 10:25:45;;;;;;;;;;;;;;;11.74;51.88;100221.97;4502728;31;35103;-86
2022/11/26 10:28:15;;;;;;;;;;;;;;;11.67;52.97;100219.25;4510537;31;34597;-85
2022/11/26 10:30:42;;;;;;;;;;;;;;;11.39;53.84;100228.03;4513717;31;35297;-86
2022/11/26 10:33:10;;;;;;;;;;;;;;;11.16;55.19;100226.53;4515063;31;34326;-86
2022/11/26 10:35:38;;;;;;;;;;;;;;;11.49;54.24;100223.97;4513521;31;34323;-86
2022/11/26 10:38:07;;;;;;;;;;;;;;;11.75;53.81;100221.16;4513969;31;34976;-86
2022/11/26 10:40:34;;;;;;;;;;;;;;;12.28;51.94;100221.59;4513619;31;34559;-86
2022/11/26 10:43:04;;;;;;;;;;;;;;;12.30;51.63;100222.50;4514909;31;34402;-86
2022/11/26 10:45:46;;;;;;;;;;;;;;;11.72;53.30;100224.56;4514978;31;33921;-86
2022/11/26 10:48:20;;;;;;;;;;;;;;;11.40;54.96;100226.31;4514801;31;34537;-88
2022/11/26 10:50:54;;;;;;;;;;;;;;;11.68;54.07;100223.59;4515271;31;34553;-88
2022/11/26 10:53:22;;;;;;;;;;;;;;;11.87;53.48;100229.28;4514178;31;33381;-87
2022/11/26 10:55:49;;;;;;;;;;;;;;;12.06;53.32;100226.28;4512673;31;33778;-87
2022/11/26 10:58:21;;;;;;;;;;;;;;;12.58;51.53;100218.78;4511690;31;34453;-87
2022/11/26 11:00:48;;;;;;;;;;;;;;;12.60;51.75;100220.56;4513146;31;35183;-86
2022/11/26 11:03:23;;;;;;;;;;;;;;;12.14;52.42;100226.47;4515138;31;34062;-87
2022/11/26 11:06:17;;;;;;;;;;;;;;;12.46;52.07;100213.31;4513916;31;35104;-86
2022/11/26 11:08:48;;;;;;;;;;;;;;;12.72;50.88;100222.53;4514531;31;35148;-86
2022/11/26 11:11:22;;;;;;;;;;;;;;;12.77;50.93;100215.72;4513063;31;34456;-88
2022/11/26 11:13:49;;;;;;;;;;;;;;;12.96;50.93;100218.72;4514458;31;33605;-87
2022/11/26 11:16:24;;;;;;;;;;;;;;;12.65;51.66;100218.94;4514499;31;34306;-88
2022/11/26 11:18:53;;;;;;;;;;;;;;;12.40;52.22;100209.72;4514418;31;35157;-87
2022/11/26 11:21:21;;;;;;;;;;;;;;;11.53;54.67;100211.94;4508612;31;35126;-87
2022/11/26 11:23:49;;;;;;;;;;;;;;;12.03;53.82;100202.81;4514612;31;33846;-87
2022/11/26 11:26:39;;;;;;;;;;;;;;;10.77;57.16;100205.56;4502655;31;34143;-87
2022/11/26 11:29:10;;;;;;;;;;;;;;;11.88;54.14;100199.84;4497490;31;35305;-88
2022/11/26 11:31:44;;;;;;;;;;;;;;;11.98;53.82;100206.16;4496941;31;34775;-86
2022/11/26 11:34:16;;;;;;;;;;;;;;;11.29;56.19;100201.78;4498673;31;34597;-87
2022/11/26 11:36:44;;;;;;;;;;;;;;;11.31;55.59;100206.19;4498541;31;33972;-87
2022/11/26 11:39:25;;;;;;;;;;;;;;;11.21;56.82;100206.75;4497037;31;34210;-87
2022/11/26 11:41:53;;;;;;;;;;;;;;;12.07;54.50;100209.84;4498591;31;34066;-87
2022/11/26 11:44:24;;;;;;;;;;;;;;;12.00;54.66;100210.53;4500091;31;33762;-85
2022/11/26 11:47:10;;;;;;;;;;;;;;;11.61;56.06;100215.59;4498373;31;34143;-87
2022/11/26 11:49:41;;;;;;;;;;;;;;;11.29;57.31;100220.84;4498418;31;35252;-89
2022/11/26 11:52:12;;;;;;;;;;;;;;;11.13;57.75;100216.94;4500079;31;34389;-86
2022/11/26 11:54:58;;;;;;;;;;;;;;;12.05;55.27;100205.47;4512841;31;33733;-86
2022/11/26 11:57:36;;;;;;;;;;;;;;;11.34;56.62;100213.19;4514509;31;34133;-87
2022/11/26 12:00:25;;;;;;;;;;;;;;;11.60;56.10;100204.34;4513057;31;34157;-87
2022/11/26 12:02:52;;;;;;;;;;;;;;;11.14;56.95;100213.53;4502600;31;33862;-88
2022/11/26 12:05:35;;;;;;;;;;;;;;;11.00;57.72;100219.19;4505445;31;32717;-87
2022/11/26 12:08:11;;;;;;;;;;;;;;;11.30;57.04;100216.53;4513904;31;33746;-87
2022/11/26 12:10:47;;;;;;;;;;;;;;;11.00;58.16;100221.78;4513252;31;34142;-87
2022/11/26 12:13:14;;;;;;;;;;;;;;;11.12;56.85;100212.59;4515790;31;34057;-87
2022/11/26 12:15:50;;;;;;;;;;;;;;;10.64;58.66;100218.16;4503551;31;33949;-85
2022/11/26 12:18:21;;;;;;;;;;;;;;;11.39;56.93;100216.78;4500192;31;33880;-89
2022/11/26 12:20:49;;;;;;;;;;;;;;;10.76;58.45;100221.94;4508064;31;35053;-87
2022/11/26 12:23:35;;;;;;;;;;;;;;;11.29;57.07;100218.25;4514610;31;33825;-87
2022/11/26 12:26:05;;;;;;;;;;;;;;;11.03;57.32;100224.47;4514666;31;34438;-86
2022/11/26 12:28:33;;;;;;;;;;;;;;;10.97;58.03;100222.56;4502592;31;33817;-86
2022/11/26 12:31:04;;;;;;;;;;;;;;;11.15;57.71;100220.47;4498559;31;34145;-87
2022/11/26 12:33:40;;;;;;;;;;;;;;;10.61;58.52;100222.41;4498489;31;35273;-87
2022/11/26 12:36:23;;;;;;;;;;;;;;;10.66;58.55;100226.00;4498661;31;33485;-88
2022/11/26 12:39:05;;;;;;;;;;;;;;;11.37;56.93;100224.53;4513216;31;34896;-86
2022/11/26 12:41:32;;;;;;;;;;;;;;;12.20;54.45;100216.22;4514516;31;35279;-87
2022/11/26 12:44:02;;;;;;;;;;;;;;;10.60;58.22;100216.31;4515460;31;34434;-87
2022/11/26 12:46:33;;;;;;;;;;;;;;;11.62;55.59;100220.84;4515518;31;33704;-85
2022/11/26 12:49:13;;;;;;;;;;;;;;;11.22;56.86;100215.47;4499623;31;34929;-85
2022/11/26 12:51:54;;;;;;;;;;;;;;;10.62;58.69;100221.56;4499522;31;34938;-88
2022/11/26 12:54:23;;;;;;;;;;;;;;;10.89;58.06;100229.25;4499432;31;34344;-88